sensor_id;sensor_type;location;lat;lon;timestamp;pressure;altitude;pressure_sealevel;temperature;humidity
27358;BME280;14831;50.474;7.616;2023-01-01T00:03:02;98030;;;12.6;62.3
27358;BME280;14831;50.474;7.616;2023-01-01T00:08:03;98030;;;12.5;62.4
27358;BME280;14831;50.474;7.616;2023-01-01T00:13:02;98040;;;12.5;62.6
27358;BME280;14831;50.474;7.616;2023-01-01T00:18:02;98030;;;12.5;62.1
27358;BME280;14831;50.474;7.616;2023-01-01T00:23:02;98030;;;12.4;62.3
27358;BME280;14831;50.474;7.616;2023-01-01T00:28:02;98020;;;12.4;62.3
27358;BME280;14831;50.474;7.616;2023-01-01T00:33:02;98020;;;12.3;62.0
27358;BME280;14831;50.474;7.616;2023-01-01T00:38:02;98020;;;12.3;62.0
27358;BME280;14831;50.474;7.616;2023-01-01T00:43:02;98020;;;12.2;62.0
27358;BME280;14831;50.474;7.616;2023-01-01T00:48:02;98010;;;12.0;62.6
27358;BME280;14831;50.474;7.616;2023-01-01T00:53:02;98010;;;12.0;62.6
27358;BME280;14831;50.474;7.616;2023-01-01T00:58:02;98010;;;11.9;62.9
27358;BME280;14831;50.474;7.616;2023-01-01T01:03:02;98010;;;11.8;63.5
27358;BME280;14831;50.474;7.616;2023-01-01T01:08:02;98010;;;11.8;63.9
27358;BME280;14831;50.474;7.616;2023-01-01T01:13:02;98020;;;11.8;63.7
27358;BME280;14831;50.474;7.616;2023-01-01T01:18:02;98020;;;11.7;64.0
27358;BME280;14831;50.474;7.616;2023-01-01T01:23:02;98020;;;11.7;64.3
27358;BME280;14831;50.474;7.616;2023-01-01T01:28:02;98040;;;11.6;64.6
27358;BME280;14831;50.474;7.616;2023-01-01T01:33:02;98040;;;11.5;65.0
27358;BME280;14831;50.474;7.616;2023-01-01T01:38:02;98050;;;11.6;65.0
27358;BME280;14831;50.474;7.616;2023-01-01T01:43:02;98050;;;11.5;65.2
27358;BME280;14831;50.474;7.616;2023-01-01T01:48:02;98050;;;11.5;65.5
27358;BME280;14831;50.474;7.616;2023-01-01T01:53:03;98050;;;11.4;65.4
27358;BME280;14831;50.474;7.616;2023-01-01T01:58:02;98060;;;11.5;65.0
27358;BME280;14831;50.474;7.616;2023-01-01T02:03:03;98040;;;11.8;63.8
27358;BME280;14831;50.474;7.616;2023-01-01T02:08:02;98050;;;11.8;63.7
27358;BME280;14831;50.474;7.616;2023-01-01T02:13:02;98050;;;11.8;64.0
27358;BME280;14831;50.474;7.616;2023-01-01T02:18:02;98050;;;11.6;64.7
27358;BME280;14831;50.474;7.616;2023-01-01T02:23:08;98040;;;11.5;65.5
27358;BME280;14831;50.474;7.616;2023-01-01T02:28:04;98050;;;11.6;65.0
27358;BME280;14831;50.474;7.616;2023-01-01T02:33:02;98060;;;11.6;65.0
27358;BME280;14831;50.474;7.616;2023-01-01T02:38:04;98050;;;11.7;64.5
27358;BME280;14831;50.474;7.616;2023-01-01T02:43:02;98050;;;11.6;65.0
27358;BME280;14831;50.474;7.616;2023-01-01T02:48:02;98070;;;11.8;64.8
27358;BME280;14831;50.474;7.616;2023-01-01T02:53:06;98060;;;12.0;64.5
27358;BME280;14831;50.474;7.616;2023-01-01T02:58:03;98070;;;11.9;64.9
27358;BME280;14831;50.474;7.616;2023-01-01T03:03:05;98070;;;11.8;65.3
27358;BME280;14831;50.474;7.616;2023-01-01T03:08:05;98080;;;11.8;65.6
27358;BME280;14831;50.474;7.616;2023-01-01T03:13:03;98070;;;11.8;66.1
27358;BME280;14831;50.474;7.616;2023-01-01T03:18:03;98070;;;11.9;66.5
27358;BME280;14831;50.474;7.616;2023-01-01T03:23:02;98070;;;11.8;66.6
27358;BME280;14831;50.474;7.616;2023-01-01T03:28:02;98070;;;11.8;66.9
27358;BME280;14831;50.474;7.616;2023-01-01T03:33:02;98080;;;11.8;67.1
27358;BME280;14831;50.474;7.616;2023-01-01T03:38:02;98080;;;11.8;67.2
27358;BME280;14831;50.474;7.616;2023-01-01T03:43:02;98090;;;11.7;67.6
27358;BME280;14831;50.474;7.616;2023-01-01T03:48:02;98080;;;11.7;67.7
27358;BME280;14831;50.474;7.616;2023-01-01T03:53:02;98080;;;11.8;67.5
27358;BME280;14831;50.474;7.616;2023-01-01T03:58:02;98080;;;11.8;67.4
27358;BME280;14831;50.474;7.616;2023-01-01T04:03:03;98080;;;11.8;67.6
27358;BME280;14831;50.474;7.616;2023-01-01T04:08:02;98080;;;11.9;67.5
27358;BME280;14831;50.474;7.616;2023-01-01T04:13:02;98080;;;11.9;67.6
27358;BME280;14831;50.474;7.616;2023-01-01T04:18:02;98090;;;11.9;67.5
27358;BME280;14831;50.474;7.616;2023-01-01T04:23:02;98090;;;11.9;67.6
27358;BME280;14831;50.474;7.616;2023-01-01T04:28:02;98110;;;11.9;67.8
27358;BME280;14831;50.474;7.616;2023-01-01T04:33:02;98090;;;11.9;67.5
27358;BME280;14831;50.474;7.616;2023-01-01T04:38:02;98090;;;11.8;68.2
27358;BME280;14831;50.474;7.616;2023-01-01T04:43:02;98100;;;11.8;68.2
27358;BME280;14831;50.474;7.616;2023-01-01T04:48:02;98100;;;11.7;68.6
27358;BME280;14831;50.474;7.616;2023-01-01T04:53:02;98100;;;11.7;68.4
27358;BME280;14831;50.474;7.616;2023-01-01T04:58:02;98100;;;11.7;68.6
27358;BME280;14831;50.474;7.616;2023-01-01T05:03:02;98100;;;11.7;68.3
27358;BME280;14831;50.474;7.616;2023-01-01T05:08:02;98100;;;11.8;68.1
27358;BME280;14831;50.474;7.616;2023-01-01T05:13:04;98110;;;11.8;67.7
27358;BME280;14831;50.474;7.616;2023-01-01T05:18:02;98110;;;11.8;67.8
27358;BME280;14831;50.474;7.616;2023-01-01T05:23:02;98120;;;11.8;67.8
27358;BME280;14831;50.474;7.616;2023-01-01T05:28:02;98130;;;11.9;67.5
27358;BME280;14831;50.474;7.616;2023-01-01T05:33:02;98150;;;12.0;67.0
27358;BME280;14831;50.474;7.616;2023-01-01T05:38:02;98130;;;12.0;67.0
27358;BME280;14831;50.474;7.616;2023-01-01T05:43:02;98140;;;12.0;67.0
27358;BME280;14831;50.474;7.616;2023-01-01T05:48:02;98140;;;12.0;67.0
27358;BME280;14831;50.474;7.616;2023-01-01T05:53:02;98150;;;11.9;67.1
27358;BME280;14831;50.474;7.616;2023-01-01T05:58:02;98160;;;11.9;67.1
27358;BME280;14831;50.474;7.616;2023-01-01T06:03:02;98150;;;12.0;66.4
27358;BME280;14831;50.474;7.616;2023-01-01T06:08:02;98160;;;12.0;66.6
27358;BME280;14831;50.474;7.616;2023-01-01T06:13:02;98160;;;12.1;66.3
27358;BME280;14831;50.474;7.616;2023-01-01T06:18:02;98170;;;12.2;66.0
27358;BME280;14831;50.474;7.616;2023-01-01T06:23:02;98170;;;12.2;66.3
27358;BME280;14831;50.474;7.616;2023-01-01T06:28:02;98180;;;12.2;66.1
27358;BME280;14831;50.474;7.616;2023-01-01T06:33:02;98190;;;12.2;66.2
27358;BME280;14831;50.474;7.616;2023-01-01T06:38:02;98210;;;12.3;65.9
27358;BME280;14831;50.474;7.616;2023-01-01T06:43:02;98200;;;12.2;66.4
27358;BME280;14831;50.474;7.616;2023-01-01T06:48:02;98210;;;12.2;66.5
27358;BME280;14831;50.474;7.616;2023-01-01T06:53:02;98200;;;12.2;66.4
27358;BME280;14831;50.474;7.616;2023-01-01T06:58:02;98210;;;12.2;66.6
27358;BME280;14831;50.474;7.616;2023-01-01T07:03:02;98220;;;12.3;66.3
27358;BME280;14831;50.474;7.616;2023-01-01T07:08:02;98240;;;12.3;66.4
27358;BME280;14831;50.474;7.616;2023-01-01T07:13:02;98240;;;12.3;66.4
27358;BME280;14831;50.474;7.616;2023-01-01T07:18:02;98240;;;12.3;66.3
27358;BME280;14831;50.474;7.616;2023-01-01T07:23:02;98240;;;12.3;66.7
27358;BME280;14831;50.474;7.616;2023-01-01T07:28:02;98240;;;12.4;66.4
27358;BME280;14831;50.474;7.616;2023-01-01T07:33:02;98240;;;12.3;66.4
27358;BME280;14831;50.474;7.616;2023-01-01T07:38:02;98240;;;12.3;66.5
27358;BME280;14831;50.474;7.616;2023-01-01T07:43:02;98250;;;12.3;66.6
27358;BME280;14831;50.474;7.616;2023-01-01T07:48:02;98250;;;12.3;67.0
27358;BME280;14831;50.474;7.616;2023-01-01T07:53:02;98250;;;12.4;66.6
27358;BME280;14831;50.474;7.616;2023-01-01T07:58:02;98260;;;12.4;67.0
27358;BME280;14831;50.474;7.616;2023-01-01T08:03:02;98270;;;12.4;66.9
27358;BME280;14831;50.474;7.616;2023-01-01T08:08:02;98280;;;12.4;67.3
27358;BME280;14831;50.474;7.616;2023-01-01T08:13:04;98300;;;12.3;67.6
27358;BME280;14831;50.474;7.616;2023-01-01T08:18:03;98310;;;12.3;67.8
27358;BME280;14831;50.474;7.616;2023-01-01T08:23:02;98310;;;12.3;67.6
27358;BME280;14831;50.474;7.616;2023-01-01T08:28:03;98320;;;12.3;67.8
27358;BME280;14831;50.474;7.616;2023-01-01T08:33:02;98320;;;12.2;68.2
27358;BME280;14831;50.474;7.616;2023-01-01T08:38:02;98330;;;12.2;68.3
27358;BME280;14831;50.474;7.616;2023-01-01T08:43:02;98330;;;12.2;68.2
27358;BME280;14831;50.474;7.616;2023-01-01T08:48:02;98340;;;12.1;68.7
27358;BME280;14831;50.474;7.616;2023-01-01T08:53:02;98340;;;12.1;68.7
27358;BME280;14831;50.474;7.616;2023-01-01T08:58:04;98330;;;12.1;69.0
27358;BME280;14831;50.474;7.616;2023-01-01T09:03:02;98330;;;12.1;69.0
27358;BME280;14831;50.474;7.616;2023-01-01T09:08:02;98330;;;12.1;69.0
27358;BME280;14831;50.474;7.616;2023-01-01T09:13:02;98330;;;12.2;68.8
27358;BME280;14831;50.474;7.616;2023-01-01T09:18:02;98320;;;12.1;69.1
27358;BME280;14831;50.474;7.616;2023-01-01T09:23:02;98350;;;12.1;69.1
27358;BME280;14831;50.474;7.616;2023-01-01T09:28:03;98360;;;12.2;69.3
27358;BME280;14831;50.474;7.616;2023-01-01T09:33:02;98360;;;12.2;69.1
27358;BME280;14831;50.474;7.616;2023-01-01T09:38:02;98360;;;12.2;69.2
27358;BME280;14831;50.474;7.616;2023-01-01T09:43:04;98370;;;12.2;69.4
27358;BME280;14831;50.474;7.616;2023-01-01T09:48:02;98380;;;12.2;69.4
27358;BME280;14831;50.474;7.616;2023-01-01T09:53:03;98380;;;12.2;69.6
27358;BME280;14831;50.474;7.616;2023-01-01T09:58:02;98390;;;12.2;69.7
27358;BME280;14831;50.474;7.616;2023-01-01T10:03:05;98380;;;12.2;69.8
27358;BME280;14831;50.474;7.616;2023-01-01T10:08:03;98390;;;12.2;69.6
27358;BME280;14831;50.474;7.616;2023-01-01T10:13:04;98380;;;12.2;69.7
27358;BME280;14831;50.474;7.616;2023-01-01T10:18:03;98390;;;12.2;69.8
27358;BME280;14831;50.474;7.616;2023-01-01T10:23:02;98390;;;12.2;70.0
27358;BME280;14831;50.474;7.616;2023-01-01T10:28:03;98390;;;12.2;70.2
27358;BME280;14831;50.474;7.616;2023-01-01T10:33:04;98370;;;12.2;70.3
27358;BME280;14831;50.474;7.616;2023-01-01T10:38:02;98370;;;12.1;70.4
27358;BME280;14831;50.474;7.616;2023-01-01T10:43:02;98370;;;12.1;70.5
27358;BME280;14831;50.474;7.616;2023-01-01T10:48:18;98380;;;12.1;70.7
27358;BME280;14831;50.474;7.616;2023-01-01T10:53:02;98380;;;12.1;70.9
27358;BME280;14831;50.474;7.616;2023-01-01T10:58:03;98370;;;12.1;70.7
27358;BME280;14831;50.474;7.616;2023-01-01T11:03:17;98350;;;12.1;70.6
27358;BME280;14831;50.474;7.616;2023-01-01T11:08:02;98350;;;12.1;71.0
27358;BME280;14831;50.474;7.616;2023-01-01T11:13:02;98340;;;12.1;71.0
27358;BME280;14831;50.474;7.616;2023-01-01T11:18:02;98330;;;12.1;71.1
27358;BME280;14831;50.474;7.616;2023-01-01T11:23:16;98340;;;12.1;71.2
27358;BME280;14831;50.474;7.616;2023-01-01T11:28:12;98340;;;12.2;71.0
27358;BME280;14831;50.474;7.616;2023-01-01T11:33:02;98340;;;12.2;70.7
27358;BME280;14831;50.474;7.616;2023-01-01T11:38:02;98340;;;12.2;70.6
27358;BME280;14831;50.474;7.616;2023-01-01T11:43:02;98350;;;12.2;70.6
27358;BME280;14831;50.474;7.616;2023-01-01T11:48:02;98360;;;12.2;70.1
27358;BME280;14831;50.474;7.616;2023-01-01T11:53:16;98370;;;12.3;69.9
27358;BME280;14831;50.474;7.616;2023-01-01T11:58:03;98360;;;12.2;70.2
27358;BME280;14831;50.474;7.616;2023-01-01T12:03:04;98380;;;12.2;69.9
27358;BME280;14831;50.474;7.616;2023-01-01T12:08:02;98370;;;12.2;70.6
27358;BME280;14831;50.474;7.616;2023-01-01T12:13:02;98370;;;12.2;70.1
27358;BME280;14831;50.474;7.616;2023-01-01T12:18:03;98360;;;12.2;70.3
27358;BME280;14831;50.474;7.616;2023-01-01T12:23:02;98360;;;12.2;70.5
27358;BME280;14831;50.474;7.616;2023-01-01T12:28:03;98370;;;12.1;70.9
27358;BME280;14831;50.474;7.616;2023-01-01T12:33:05;98370;;;12.1;70.9
27358;BME280;14831;50.474;7.616;2023-01-01T12:38:04;98370;;;12.1;70.8
27358;BME280;14831;50.474;7.616;2023-01-01T12:43:02;98360;;;12.2;70.8
27358;BME280;14831;50.474;7.616;2023-01-01T12:48:02;98350;;;12.2;70.7
27358;BME280;14831;50.474;7.616;2023-01-01T12:53:04;98350;;;12.2;70.8
27358;BME280;14831;50.474;7.616;2023-01-01T12:58:03;98350;;;12.2;70.8
27358;BME280;14831;50.474;7.616;2023-01-01T13:03:03;98350;;;12.3;71.1
27358;BME280;14831;50.474;7.616;2023-01-01T13:08:03;98340;;;12.3;70.9
27358;BME280;14831;50.474;7.616;2023-01-01T13:13:02;98340;;;12.3;70.8
27358;BME280;14831;50.474;7.616;2023-01-01T13:18:06;98330;;;12.4;70.5
27358;BME280;14831;50.474;7.616;2023-01-01T13:23:02;98320;;;12.5;70.5
27358;BME280;14831;50.474;7.616;2023-01-01T13:28:02;98320;;;12.5;70.0
27358;BME280;14831;50.474;7.616;2023-01-01T13:33:09;98310;;;12.5;70.1
27358;BME280;14831;50.474;7.616;2023-01-01T13:38:02;98320;;;12.4;70.4
27358;BME280;14831;50.474;7.616;2023-01-01T13:43:04;98330;;;12.4;70.7
27358;BME280;14831;50.474;7.616;2023-01-01T13:48:05;98310;;;12.3;70.6
27358;BME280;14831;50.474;7.616;2023-01-01T13:53:05;98300;;;12.3;70.4
27358;BME280;14831;50.474;7.616;2023-01-01T13:58:07;98320;;;12.3;70.4
27358;BME280;14831;50.474;7.616;2023-01-01T14:03:03;98320;;;12.3;70.7
27358;BME280;14831;50.474;7.616;2023-01-01T14:08:02;98320;;;12.2;70.5
27358;BME280;14831;50.474;7.616;2023-01-01T14:13:13;98320;;;12.2;71.0
27358;BME280;14831;50.474;7.616;2023-01-01T14:18:03;98330;;;12.2;70.7
27358;BME280;14831;50.474;7.616;2023-01-01T14:23:04;98320;;;12.2;70.7
27358;BME280;14831;50.474;7.616;2023-01-01T14:28:02;98310;;;12.1;71.1
27358;BME280;14831;50.474;7.616;2023-01-01T14:33:02;98320;;;12.1;71.3
27358;BME280;14831;50.474;7.616;2023-01-01T14:38:15;98320;;;12.1;71.2
27358;BME280;14831;50.474;7.616;2023-01-01T14:43:03;98320;;;12.1;71.2
27358;BME280;14831;50.474;7.616;2023-01-01T14:48:02;98330;;;12.1;71.2
27358;BME280;14831;50.474;7.616;2023-01-01T14:53:02;98330;;;12.0;71.1
27358;BME280;14831;50.474;7.616;2023-01-01T14:58:02;98330;;;12.0;71.2
27358;BME280;14831;50.474;7.616;2023-01-01T15:03:03;98330;;;12.0;70.8
27358;BME280;14831;50.474;7.616;2023-01-01T15:08:03;98320;;;12.0;71.2
27358;BME280;14831;50.474;7.616;2023-01-01T15:13:03;98330;;;12.0;71.2
27358;BME280;14831;50.474;7.616;2023-01-01T15:18:02;98340;;;11.9;71.5
27358;BME280;14831;50.474;7.616;2023-01-01T15:23:02;98330;;;12.0;71.0
27358;BME280;14831;50.474;7.616;2023-01-01T15:28:02;98340;;;11.9;71.5
27358;BME280;14831;50.474;7.616;2023-01-01T15:33:05;98340;;;11.9;71.7
27358;BME280;14831;50.474;7.616;2023-01-01T15:38:02;98330;;;11.9;71.4
27358;BME280;14831;50.474;7.616;2023-01-01T15:43:18;98330;;;11.9;71.5
27358;BME280;14831;50.474;7.616;2023-01-01T15:48:15;98320;;;11.9;71.5
27358;BME280;14831;50.474;7.616;2023-01-01T15:53:03;98330;;;11.9;71.8
27358;BME280;14831;50.474;7.616;2023-01-01T15:58:02;98330;;;11.9;71.8
27358;BME280;14831;50.474;7.616;2023-01-01T16:03:02;98330;;;11.8;72.7
27358;BME280;14831;50.474;7.616;2023-01-01T16:08:02;98330;;;11.8;73.5
27358;BME280;14831;50.474;7.616;2023-01-01T16:13:02;98330;;;11.7;73.8
27358;BME280;14831;50.474;7.616;2023-01-01T16:18:02;98330;;;11.6;74.0
27358;BME280;14831;50.474;7.616;2023-01-01T16:23:02;98330;;;11.6;74.9
27358;BME280;14831;50.474;7.616;2023-01-01T16:28:02;98320;;;11.5;77.0
27358;BME280;14831;50.474;7.616;2023-01-01T16:33:02;98300;;;11.4;76.8
27358;BME280;14831;50.474;7.616;2023-01-01T16:38:02;98290;;;11.3;77.7
27358;BME280;14831;50.474;7.616;2023-01-01T16:43:02;98290;;;11.3;77.2
27358;BME280;14831;50.474;7.616;2023-01-01T16:48:02;98280;;;11.3;77.3
27358;BME280;14831;50.474;7.616;2023-01-01T16:53:02;98280;;;11.3;77.7
27358;BME280;14831;50.474;7.616;2023-01-01T16:58:02;98270;;;11.3;76.8
27358;BME280;14831;50.474;7.616;2023-01-01T17:03:02;98270;;;11.3;76.5
27358;BME280;14831;50.474;7.616;2023-01-01T17:08:02;98280;;;11.4;76.3
27358;BME280;14831;50.474;7.616;2023-01-01T17:13:02;98270;;;11.4;76.3
27358;BME280;14831;50.474;7.616;2023-01-01T17:18:02;98270;;;11.4;75.9
27358;BME280;14831;50.474;7.616;2023-01-01T17:23:02;98250;;;11.4;76.5
27358;BME280;14831;50.474;7.616;2023-01-01T17:28:02;98250;;;11.4;76.4
27358;BME280;14831;50.474;7.616;2023-01-01T17:33:02;98250;;;11.3;76.2
27358;BME280;14831;50.474;7.616;2023-01-01T17:38:02;98240;;;11.3;76.7
27358;BME280;14831;50.474;7.616;2023-01-01T17:43:02;98240;;;11.3;76.5
27358;BME280;14831;50.474;7.616;2023-01-01T17:48:02;98250;;;11.2;76.1
27358;BME280;14831;50.474;7.616;2023-01-01T17:53:03;98240;;;11.3;76.0
27358;BME280;14831;50.474;7.616;2023-01-01T17:58:02;98230;;;11.3;75.6
27358;BME280;14831;50.474;7.616;2023-01-01T18:03:02;98230;;;11.3;75.7
27358;BME280;14831;50.474;7.616;2023-01-01T18:08:02;98230;;;11.3;75.5
27358;BME280;14831;50.474;7.616;2023-01-01T18:13:02;98220;;;11.3;75.3
27358;BME280;14831;50.474;7.616;2023-01-01T18:18:02;98210;;;11.3;76.1
27358;BME280;14831;50.474;7.616;2023-01-01T18:23:02;98220;;;11.2;76.2
27358;BME280;14831;50.474;7.616;2023-01-01T18:28:02;98220;;;11.3;75.9
27358;BME280;14831;50.474;7.616;2023-01-01T18:33:02;98220;;;11.3;75.9
27358;BME280;14831;50.474;7.616;2023-01-01T18:38:02;98220;;;11.3;75.7
27358;BME280;14831;50.474;7.616;2023-01-01T18:43:02;98200;;;11.3;76.8
27358;BME280;14831;50.474;7.616;2023-01-01T18:48:03;98190;;;11.3;77.5
27358;BME280;14831;50.474;7.616;2023-01-01T18:53:08;98180;;;11.3;78.2
27358;BME280;14831;50.474;7.616;2023-01-01T18:58:04;98160;;;11.2;79.0
27358;BME280;14831;50.474;7.616;2023-01-01T19:03:02;98160;;;11.2;78.8
27358;BME280;14831;50.474;7.616;2023-01-01T19:08:09;98170;;;11.3;78.5
27358;BME280;14831;50.474;7.616;2023-01-01T19:13:12;98170;;;11.5;76.8
27358;BME280;14831;50.474;7.616;2023-01-01T19:18:02;98150;;;11.7;74.7
27358;BME280;14831;50.474;7.616;2023-01-01T19:23:02;98160;;;11.8;75.0
27358;BME280;14831;50.474;7.616;2023-01-01T19:28:12;98150;;;11.7;75.1
27358;BME280;14831;50.474;7.616;2023-01-01T19:33:02;98150;;;11.8;74.2
27358;BME280;14831;50.474;7.616;2023-01-01T19:38:02;98130;;;11.9;73.8
27358;BME280;14831;50.474;7.616;2023-01-01T19:43:02;98140;;;12.0;73.2
27358;BME280;14831;50.474;7.616;2023-01-01T19:48:02;98130;;;11.9;74.0
27358;BME280;14831;50.474;7.616;2023-01-01T19:53:02;98120;;;11.9;73.5
27358;BME280;14831;50.474;7.616;2023-01-01T19:58:02;98120;;;12.0;73.4
27358;BME280;14831;50.474;7.616;2023-01-01T20:03:02;98110;;;12.1;72.5
27358;BME280;14831;50.474;7.616;2023-01-01T20:08:02;98100;;;12.0;72.6
27358;BME280;14831;50.474;7.616;2023-01-01T20:13:02;98110;;;12.2;71.8
27358;BME280;14831;50.474;7.616;2023-01-01T20:18:02;98100;;;12.3;71.0
27358;BME280;14831;50.474;7.616;2023-01-01T20:23:02;98100;;;12.4;70.5
27358;BME280;14831;50.474;7.616;2023-01-01T20:28:02;98100;;;12.4;69.8
27358;BME280;14831;50.474;7.616;2023-01-01T20:33:02;98100;;;12.5;69.9
27358;BME280;14831;50.474;7.616;2023-01-01T20:38:02;98090;;;12.5;69.3
27358;BME280;14831;50.474;7.616;2023-01-01T20:43:02;98090;;;12.5;69.4
27358;BME280;14831;50.474;7.616;2023-01-01T20:48:02;98090;;;12.7;67.8
27358;BME280;14831;50.474;7.616;2023-01-01T20:53:02;98090;;;12.7;68.3
27358;BME280;14831;50.474;7.616;2023-01-01T20:58:02;98070;;;12.7;68.0
27358;BME280;14831;50.474;7.616;2023-01-01T21:03:02;98090;;;12.7;67.9
27358;BME280;14831;50.474;7.616;2023-01-01T21:08:02;98100;;;12.7;68.0
27358;BME280;14831;50.474;7.616;2023-01-01T21:13:02;98100;;;12.7;67.7
27358;BME280;14831;50.474;7.616;2023-01-01T21:18:02;98100;;;12.8;67.3
27358;BME280;14831;50.474;7.616;2023-01-01T21:23:02;98080;;;12.7;67.8
27358;BME280;14831;50.474;7.616;2023-01-01T21:28:02;98080;;;12.8;67.9
27358;BME280;14831;50.474;7.616;2023-01-01T21:33:02;98080;;;12.9;66.8
27358;BME280;14831;50.474;7.616;2023-01-01T21:38:02;98080;;;12.8;67.2
27358;BME280;14831;50.474;7.616;2023-01-01T21:43:08;98080;;;12.8;67.4
27358;BME280;14831;50.474;7.616;2023-01-01T21:48:08;98080;;;12.9;67.1
27358;BME280;14831;50.474;7.616;2023-01-01T21:53:07;98080;;;12.9;66.9
27358;BME280;14831;50.474;7.616;2023-01-01T21:58:02;98080;;;12.9;67.2
27358;BME280;14831;50.474;7.616;2023-01-01T22:03:02;98060;;;12.8;67.3
27358;BME280;14831;50.474;7.616;2023-01-01T22:08:16;98060;;;12.8;67.2
27358;BME280;14831;50.474;7.616;2023-01-01T22:13:07;98070;;;12.9;67.3
27358;BME280;14831;50.474;7.616;2023-01-01T22:18:19;98060;;;12.9;66.6
27358;BME280;14831;50.474;7.616;2023-01-01T22:23:04;98060;;;12.9;67.4
27358;BME280;14831;50.474;7.616;2023-01-01T22:28:04;98070;;;12.9;66.8
27358;BME280;14831;50.474;7.616;2023-01-01T22:33:05;98060;;;12.9;67.0
27358;BME280;14831;50.474;7.616;2023-01-01T22:38:02;98070;;;12.9;66.9
27358;BME280;14831;50.474;7.616;2023-01-01T22:43:02;98070;;;12.9;66.3
27358;BME280;14831;50.474;7.616;2023-01-01T22:48:02;98080;;;13.0;66.7
27358;BME280;14831;50.474;7.616;2023-01-01T22:53:02;98090;;;13.0;66.6
27358;BME280;14831;50.474;7.616;2023-01-01T22:58:02;98100;;;12.9;67.0
27358;BME280;14831;50.474;7.616;2023-01-01T23:03:02;98100;;;13.0;66.5
27358;BME280;14831;50.474;7.616;2023-01-01T23:08:02;98080;;;13.0;66.7
27358;BME280;14831;50.474;7.616;2023-01-01T23:13:02;98070;;;13.0;66.4
27358;BME280;14831;50.474;7.616;2023-01-01T23:18:02;98070;;;13.1;66.1
27358;BME280;14831;50.474;7.616;2023-01-01T23:23:03;98070;;;13.1;66.4
27358;BME280;14831;50.474;7.616;2023-01-01T23:28:02;98060;;;13.0;66.9
27358;BME280;14831;50.474;7.616;2023-01-01T23:33:02;98070;;;12.9;66.7
27358;BME280;14831;50.474;7.616;2023-01-01T23:38:02;98070;;;12.9;67.3
27358;BME280;14831;50.474;7.616;2023-01-01T23:43:02;98050;;;12.9;67.3
27358;BME280;14831;50.474;7.616;2023-01-01T23:48:02;98060;;;12.9;66.9
27358;BME280;14831;50.474;7.616;2023-01-01T23:53:02;98050;;;13.0;66.8
27358;BME280;14831;50.474;7.616;2023-01-01T23:58:02;98050;;;12.9;66.8
